»·PEaware :: WAT542 KBZN-KSEA

WAT542 :: KBZN-KSEA

FLIGHT INFORMATION

Flight Status: Arrived
Operator:
Walker Air Transport
More flights by this operator :: More flights under this callsign
Pilot: Andrew C. (28419)
Aircraft: AIRBUS A321
(A321)
More flights by this aircraft type
Origin: KBZN Gallatin
United States
Destination: KSEA Seattle-Tacoma Intl
United States
More flights between these airports :: More routes between these airports
Route: TEERX4 HIA TEMPL GLASR1
File this flight plan on PilotEdge
Remarks: RMK / SIMBRIEF
Altitude:
(Current/Filed)
36,000ft
Speed:
(Current/Filed)
456kts
Departed: 16-Feb-21 05:51 PM
Arrived: 16-Feb-21 07:17 PM
Distance/Time
Traveled:
470nm/1:26
Distance/Time
To Go:
Arrived

Flight Plot

Page will automatically refresh every two minutes.

Flight plan parsing failed; only flown route is shown


Map Options




Map Legend


Flown Route
Filed Route
Departure Airport
Arrival Airport
Navaid (VOR, NDB)
Fix

Horizontal Profiles

Position Reports

Time Latitude Longitude Heading Altitude Ground
Speed
16-Feb-21 17:19 45.777965 -111.159501 261 4463ft 0kts
16-Feb-21 17:20 45.777965 -111.159501 261 4463ft 0kts
16-Feb-21 17:21 45.777965 -111.159501 261 4463ft 0kts
16-Feb-21 17:22 45.777965 -111.159501 261 4463ft 0kts
16-Feb-21 17:23 45.777965 -111.159501 261 4463ft 0kts
16-Feb-21 17:24 45.777965 -111.159501 261 4463ft 0kts
16-Feb-21 17:25 45.777965 -111.159501 261 4463ft 0kts
16-Feb-21 17:26 45.777965 -111.159501 261 4463ft 0kts
16-Feb-21 17:27 45.777965 -111.159501 261 4463ft 0kts
16-Feb-21 17:28 45.777965 -111.159501 261 4463ft 0kts
16-Feb-21 17:29 45.777965 -111.159501 261 4463ft 0kts
16-Feb-21 17:30 45.777965 -111.159501 261 4463ft 0kts
16-Feb-21 17:31 45.777965 -111.159501 261 4463ft 0kts
16-Feb-21 17:32 45.777965 -111.159501 261 4463ft 0kts
16-Feb-21 17:33 45.777965 -111.159501 261 4463ft 0kts
16-Feb-21 17:34 45.777965 -111.159501 261 4463ft 0kts
16-Feb-21 17:35 45.777965 -111.159501 261 4463ft 0kts
16-Feb-21 17:36 45.777965 -111.159501 261 4463ft 0kts
16-Feb-21 17:37 45.777965 -111.159501 261 4463ft 0kts
16-Feb-21 17:38 45.777965 -111.159501 261 4463ft 0kts
16-Feb-21 17:39 45.777981 -111.159370 272 4463ft 2kts
16-Feb-21 17:40 45.777851 -111.158512 298 4462ft 2kts
16-Feb-21 17:41 45.777529 -111.157973 319 4463ft 0kts
16-Feb-21 17:42 45.777530 -111.157973 319 4463ft 0kts
16-Feb-21 17:43 45.777530 -111.157973 319 4463ft 0kts
16-Feb-21 17:44 45.777548 -111.157994 321 4463ft 0kts
16-Feb-21 17:46 45.778070 -111.157940 34 4461ft 0kts
16-Feb-21 17:47 45.780491 -111.160066 315 4458ft 16kts
16-Feb-21 17:48 45.784514 -111.165700 316 4447ft 21kts
16-Feb-21 17:49 45.787213 -111.167591 46 4440ft 0kts
16-Feb-21 17:50 45.787606 -111.165901 135 4439ft 6kts
16-Feb-21 17:51 45.764601 -111.133127 139 5231ft 170kts
16-Feb-21 17:52 45.728876 -111.161967 229 6811ft 188kts
16-Feb-21 17:53 45.699860 -111.233226 279 7798ft 245kts
16-Feb-21 17:54 45.712685 -111.337332 280 10038ft 273kts
16-Feb-21 17:55 45.725583 -111.451737 281 12291ft 297kts
16-Feb-21 17:56 45.739777 -111.578058 281 14535ft 316kts
16-Feb-21 17:57 45.761455 -111.712126 289 15975ft 324kts
16-Feb-21 17:58 45.788821 -111.835724 289 16331ft 331kts
16-Feb-21 17:59 45.817524 -111.966094 289 18290ft 339kts
16-Feb-21 18:00 45.846166 -112.097126 289 20016ft 348kts
16-Feb-21 18:01 45.883246 -112.242034 294 21783ft 357kts
16-Feb-21 18:02 45.924794 -112.382581 293 23405ft 366kts
16-Feb-21 18:03 45.965222 -112.520262 293 24804ft 374kts
16-Feb-21 18:04 46.006805 -112.662745 292 26154ft 381kts
16-Feb-21 18:04 46.041008 -112.780890 292 27169ft 387kts
16-Feb-21 18:06 46.089669 -112.949529 292 28437ft 396kts
16-Feb-21 18:06 46.125374 -113.072974 292 29275ft 403kts
16-Feb-21 18:08 46.175825 -113.248944 292 30333ft 412kts
16-Feb-21 18:09 46.219356 -113.402458 292 31217ft 417kts
16-Feb-21 18:09 46.255657 -113.531282 292 32271ft 413kts
16-Feb-21 18:10 46.298422 -113.684029 292 33522ft 408kts
16-Feb-21 18:11 46.340337 -113.834968 293 34743ft 402kts
16-Feb-21 18:13 46.388253 -114.008381 293 35950ft 398kts
16-Feb-21 18:13 46.422989 -114.134888 293 35969ft 407kts
16-Feb-21 18:14 46.464766 -114.287797 293 35976ft 407kts
16-Feb-21 18:16 46.513617 -114.467822 293 35976ft 407kts
16-Feb-21 18:16 46.548374 -114.596753 293 35976ft 407kts
16-Feb-21 18:17 46.590057 -114.752680 292 35976ft 407kts
16-Feb-21 18:18 46.631610 -114.909000 292 35976ft 406kts
16-Feb-21 18:19 46.673213 -115.066373 292 35976ft 406kts
16-Feb-21 18:20 46.714876 -115.225001 292 35976ft 405kts
16-Feb-21 18:21 46.754893 -115.378442 292 35976ft 404kts
16-Feb-21 18:22 46.794685 -115.532052 292 35975ft 404kts
16-Feb-21 18:23 46.834076 -115.685192 291 35976ft 404kts
16-Feb-21 18:24 46.873393 -115.839371 292 35976ft 404kts
16-Feb-21 18:25 46.912531 -115.993468 292 35976ft 404kts
16-Feb-21 18:26 46.951187 -116.146734 292 35976ft 403kts
16-Feb-21 18:27 46.989722 -116.300470 292 35975ft 403kts
16-Feb-21 18:28 47.028087 -116.454596 292 35975ft 403kts
16-Feb-21 18:29 47.066272 -116.609066 292 35969ft 402kts
16-Feb-21 18:30 47.103975 -116.762979 291 35949ft 402kts
16-Feb-21 18:31 47.141968 -116.917240 291 35948ft 402kts
16-Feb-21 18:32 47.179436 -117.071633 291 35966ft 401kts
16-Feb-21 18:33 47.216606 -117.226100 291 35993ft 401kts
16-Feb-21 18:34 47.253512 -117.380639 291 36001ft 401kts
16-Feb-21 18:35 47.290169 -117.535264 291 36002ft 401kts
16-Feb-21 18:36 47.326555 -117.689965 290 36002ft 401kts
16-Feb-21 18:37 47.362761 -117.845283 290 36002ft 401kts
16-Feb-21 18:38 47.398894 -118.001020 290 36010ft 401kts
16-Feb-21 18:39 47.434504 -118.155580 291 36021ft 398kts
16-Feb-21 18:40 47.469906 -118.310314 291 36022ft 398kts
16-Feb-21 18:41 47.504942 -118.464605 291 36015ft 397kts
16-Feb-21 18:42 47.539752 -118.619047 291 36007ft 395kts
16-Feb-21 18:43 47.574125 -118.773101 290 36005ft 394kts
16-Feb-21 18:44 47.608319 -118.927138 290 36009ft 392kts
16-Feb-21 18:45 47.642104 -119.080316 290 36027ft 391kts
16-Feb-21 18:46 47.675611 -119.233324 290 36037ft 389kts
16-Feb-21 18:47 47.708737 -119.385796 290 36039ft 389kts
16-Feb-21 18:48 47.734262 -119.542091 282 36039ft 393kts
16-Feb-21 18:49 47.747330 -119.703207 280 36040ft 394kts
16-Feb-21 18:50 47.759742 -119.862879 280 35224ft 378kts
16-Feb-21 18:51 47.771744 -120.018495 279 32838ft 385kts
16-Feb-21 18:52 47.783801 -120.178753 278 30043ft 398kts
16-Feb-21 18:53 47.795827 -120.343531 278 27524ft 399kts
16-Feb-21 18:54 47.807383 -120.504210 278 25671ft 385kts
16-Feb-21 18:55 47.818419 -120.660111 278 23856ft 374kts
16-Feb-21 18:56 47.828894 -120.811897 278 22086ft 362kts
16-Feb-21 18:57 47.838866 -120.959036 278 20340ft 352kts
16-Feb-21 18:58 47.848596 -121.104635 278 18590ft 341kts
16-Feb-21 18:59 47.857667 -121.243212 278 16916ft 332kts
16-Feb-21 19:00 47.866327 -121.378494 278 15205ft 324kts
16-Feb-21 19:01 47.874701 -121.510684 278 13481ft 317kts
16-Feb-21 19:02 47.882538 -121.637684 278 12179ft 277kts
16-Feb-21 19:03 47.862260 -121.738305 228 11993ft 283kts
16-Feb-21 19:04 47.803552 -121.816965 229 12000ft 282kts
16-Feb-21 19:05 47.745241 -121.895724 228 11982ft 282kts
16-Feb-21 19:06 47.709750 -121.983940 254 11108ft 240kts
16-Feb-21 19:07 47.686694 -122.076038 255 9480ft 235kts
16-Feb-21 19:08 47.665232 -122.163118 255 8215ft 206kts
16-Feb-21 19:09 47.645776 -122.240834 254 6135ft 199kts
16-Feb-21 19:10 47.635104 -122.318625 275 4265ft 191kts
16-Feb-21 19:11 47.620053 -122.384693 185 3284ft 189kts
16-Feb-21 19:12 47.585247 -122.322357 148 3215ft 202kts
16-Feb-21 19:13 47.530761 -122.309637 169 1778ft 203kts
16-Feb-21 19:14 47.483312 -122.307547 183 859ft 147kts
16-Feb-21 19:15 47.447404 -122.307934 180 478ft 61kts
16-Feb-21 19:16 47.441985 -122.305861 99 478ft 10kts
16-Feb-21 19:17 47.441984 -122.304607 90 478ft 0kts

Navigation Log

Ident Type
Flight plan parsing failed, navigation log unavailable